Time;durP1;ratioP1;P1;durP2;ratioP2;P2;SDS_P1;SDS_P2;PMS_P1;PMS_P2;Temp;Humidity;BMP_temperature;BMP_pressure;BME280_temperature;BME280_humidity;BME280_pressure;Samples;Min_cycle;Max_cycle;Signal;HPM_P1;HPM_P2
2021/01/29 00:00:28;;;;;;;5.03;2.78;;;4.40;95.30;;;;;;5012193;28;20037;-79
2021/01/29 00:02:56;;;;;;;4.20;2.35;;;4.40;95.20;;;;;;5012212;28;20444;-79
2021/01/29 00:05:24;;;;;;;5.57;2.50;;;4.30;95.30;;;;;;5011917;28;20021;-78
2021/01/29 00:07:50;;;;;;;8.23;3.10;;;4.40;95.50;;;;;;5013646;28;20440;-79
2021/01/29 00:10:16;;;;;;;4.63;2.80;;;4.30;95.40;;;;;;5011853;28;20046;-79
2021/01/29 00:12:42;;;;;;;7.97;2.85;;;4.40;95.50;;;;;;5011865;28;20483;-80
2021/01/29 00:15:13;;;;;;;9.45;2.95;;;4.50;95.50;;;;;;5011912;28;20539;-78
2021/01/29 00:17:40;;;;;;;7.05;2.88;;;4.60;95.50;;;;;;5011815;28;20036;-78
2021/01/29 00:20:10;;;;;;;13.48;3.33;;;4.40;95.40;;;;;;5012350;28;20072;-79
2021/01/29 00:22:35;;;;;;;5.80;2.67;;;4.20;95.60;;;;;;5012549;28;20052;-79
2021/01/29 00:25:02;;;;;;;8.48;3.20;;;4.20;95.80;;;;;;5012017;28;20034;-78
2021/01/29 00:27:29;;;;;;;6.00;3.13;;;4.30;95.90;;;;;;5033126;28;20061;-78
2021/01/29 00:29:55;;;;;;;6.88;3.10;;;4.30;95.80;;;;;;4998532;28;20034;-77
2021/01/29 00:32:20;;;;;;;5.10;3.13;;;4.30;95.80;;;;;;5011623;28;20506;-77
2021/01/29 00:34:46;;;;;;;5.55;3.30;;;4.30;95.90;;;;;;5028775;28;20029;-77
2021/01/29 00:37:12;;;;;;;6.45;3.10;;;4.40;95.80;;;;;;5026660;28;20057;-78
2021/01/29 00:39:37;;;;;;;9.68;3.53;;;4.50;95.80;;;;;;5011926;28;20125;-78
2021/01/29 00:42:03;;;;;;;7.78;3.63;;;4.30;95.70;;;;;;5011759;28;20069;-77
2021/01/29 00:44:29;;;;;;;10.07;3.72;;;4.30;96.00;;;;;;5011668;28;20128;-77
2021/01/29 00:46:54;;;;;;;7.38;3.42;;;4.40;95.90;;;;;;5013228;28;20040;-76
2021/01/29 00:49:20;;;;;;;8.32;3.53;;;4.40;95.90;;;;;;5011513;28;20401;-76
2021/01/29 00:51:45;;;;;;;10.55;3.40;;;4.40;96.00;;;;;;5011223;28;20427;-77
2021/01/29 00:54:11;;;;;;;8.40;3.78;;;4.30;96.00;;;;;;5010610;28;20034;-77
2021/01/29 00:56:37;;;;;;;7.00;3.65;;;4.30;96.10;;;;;;5011251;28;20046;-77
2021/01/29 00:59:03;;;;;;;8.73;3.95;;;4.20;96.10;;;;;;5013162;28;20404;-78
2021/01/29 01:01:28;;;;;;;6.90;3.72;;;4.10;96.20;;;;;;5026987;28;20120;-77
2021/01/29 01:03:54;;;;;;;6.93;3.67;;;4.10;96.40;;;;;;5011629;28;20030;-77
2021/01/29 01:06:19;;;;;;;9.90;3.30;;;4.10;96.30;;;;;;5013511;28;20045;-78
2021/01/29 01:08:45;;;;;;;10.43;3.53;;;4.00;96.40;;;;;;5015365;28;20129;-77
2021/01/29 01:11:10;;;;;;;6.22;3.42;;;4.10;96.50;;;;;;5015205;28;20040;-75
2021/01/29 01:13:36;;;;;;;6.75;3.47;;;4.00;96.30;;;;;;5016658;28;20080;-78
2021/01/29 01:16:02;;;;;;;6.07;3.20;;;4.20;96.40;;;;;;5015049;28;20049;-77
2021/01/29 01:18:27;;;;;;;13.48;3.22;;;4.10;96.30;;;;;;5014932;28;20046;-78
2021/01/29 01:20:53;;;;;;;7.40;3.55;;;4.10;96.40;;;;;;5014952;28;20356;-77
2021/01/29 01:23:19;;;;;;;8.77;3.35;;;4.10;96.40;;;;;;5014850;28;20105;-77
2021/01/29 01:25:44;;;;;;;6.20;3.90;;;4.10;96.30;;;;;;5016583;28;20104;-77
2021/01/29 01:28:10;;;;;;;7.03;3.70;;;4.00;96.40;;;;;;5014667;28;20041;-78
2021/01/29 01:30:38;;;;;;;6.70;3.28;;;4.10;96.40;;;;;;5029993;28;20045;-78
2021/01/29 01:33:04;;;;;;;9.93;3.47;;;4.10;96.30;;;;;;5014472;28;20029;-78
2021/01/29 01:35:30;;;;;;;12.18;3.72;;;4.10;96.20;;;;;;5014900;28;20349;-78
2021/01/29 01:37:56;;;;;;;9.27;3.63;;;4.30;96.30;;;;;;5016075;28;20104;-77
2021/01/29 01:40:27;;;;;;;6.38;3.60;;;4.30;96.30;;;;;;5014774;28;20057;-78
2021/01/29 01:42:52;;;;;;;10.20;3.53;;;4.30;96.20;;;;;;5014603;28;20121;-77
2021/01/29 01:45:27;;;;;;;8.45;4.15;;;4.30;96.00;;;;;;5014455;28;20038;-77
2021/01/29 01:48:10;;;;;;;10.80;3.95;;;4.20;96.20;;;;;;5014485;28;20094;-77
2021/01/29 01:50:42;;;;;;;8.00;3.97;;;4.20;96.20;;;;;;5014494;28;20026;-77
2021/01/29 01:53:48;;;;;;;11.63;4.00;;;4.30;96.40;;;;;;5015786;28;20099;-77
2021/01/29 01:56:30;;;;;;;8.07;3.30;;;4.30;96.40;;;;;;5013101;28;20208;-77
2021/01/29 01:58:59;;;;;;;8.20;3.85;;;4.30;96.40;;;;;;5015756;28;20092;-77
2021/01/29 02:01:25;;;;;;;11.25;4.65;;;4.10;96.40;;;;;;5014213;28;20292;-76
2021/01/29 02:03:54;;;;;;;7.00;4.18;;;4.10;96.60;;;;;;5014243;28;20038;-77
2021/01/29 02:06:21;;;;;;;9.02;4.13;;;4.10;96.60;;;;;;5029496;28;20044;-76
2021/01/29 02:08:48;;;;;;;8.15;4.13;;;4.20;96.80;;;;;;5014231;28;20482;-78
2021/01/29 02:11:17;;;;;;;9.57;4.32;;;4.10;96.90;;;;;;5013959;28;20152;-76
2021/01/29 02:13:43;;;;;;;10.80;4.38;;;4.10;96.90;;;;;;5015545;28;20117;-78
2021/01/29 02:16:35;;;;;;;8.30;4.43;;;4.20;96.90;;;;;;5014005;28;20073;-77
2021/01/29 02:19:25;;;;;;;9.27;3.90;;;4.20;96.70;;;;;;4998221;28;20042;-77
2021/01/29 02:22:13;;;;;;;8.05;4.82;;;4.10;96.90;;;;;;4994207;28;20078;-77
2021/01/29 02:25:01;;;;;;;8.02;4.80;;;4.00;97.10;;;;;;4993946;28;20528;-77
2021/01/29 02:27:26;;;;;;;9.50;4.93;;;4.10;97.20;;;;;;5003339;28;20449;-77
2021/01/29 02:30:07;;;;;;;12.52;5.20;;;4.00;97.30;;;;;;5007681;28;20121;-76
2021/01/29 02:32:51;;;;;;;8.98;4.82;;;3.90;97.40;;;;;;4996281;28;20069;-77
2021/01/29 02:35:54;;;;;;;14.15;5.00;;;4.00;97.50;;;;;;5013445;28;20033;-77
2021/01/29 02:38:39;;;;;;;11.10;4.85;;;4.00;97.50;;;;;;5028818;28;20045;-77
2021/01/29 02:41:30;;;;;;;11.30;5.00;;;4.10;97.40;;;;;;5014830;28;20025;-77
2021/01/29 02:44:11;;;;;;;15.15;5.93;;;4.20;97.40;;;;;;5025781;28;20504;-77
2021/01/29 02:46:56;;;;;;;10.13;5.22;;;4.20;97.30;;;;;;4993918;28;20381;-77
2021/01/29 02:49:45;;;;;;;9.35;5.47;;;4.20;97.20;;;;;;4993571;28;20042;-76
2021/01/29 02:52:27;;;;;;;11.23;5.18;;;4.10;97.30;;;;;;4993328;28;20039;-76
2021/01/29 02:55:16;;;;;;;9.63;4.93;;;4.10;97.40;;;;;;4992360;28;20062;-76
2021/01/29 02:57:52;;;;;;;13.75;5.20;;;4.10;97.40;;;;;;5006278;28;20034;-77
2021/01/29 03:00:32;;;;;;;11.13;5.43;;;4.10;97.40;;;;;;5013034;28;20048;-76
2021/01/29 03:03:22;;;;;;;11.13;4.85;;;4.00;97.30;;;;;;5013096;28;20052;-77
2021/01/29 03:06:03;;;;;;;9.95;5.45;;;3.80;97.40;;;;;;5013026;28;20030;-77
2021/01/29 03:08:34;;;;;;;9.75;5.07;;;3.90;97.40;;;;;;5028123;28;20193;-76
2021/01/29 03:10:59;;;;;;;10.77;5.10;;;3.90;97.50;;;;;;5014616;28;20026;-76
2021/01/29 03:13:47;;;;;;;11.35;5.43;;;4.00;97.60;;;;;;5028380;28;20049;-77
2021/01/29 03:16:24;;;;;;;10.07;5.18;;;4.10;97.40;;;;;;5012993;28;20034;-76
2021/01/29 03:19:07;;;;;;;15.90;6.55;;;4.00;97.30;;;;;;5012811;28;20029;-77
2021/01/29 03:21:39;;;;;;;11.30;5.53;;;4.00;97.40;;;;;;5012839;28;20069;-78
2021/01/29 03:24:11;;;;;;;12.25;5.10;;;4.00;97.30;;;;;;5012692;28;20046;-78
2021/01/29 03:26:49;;;;;;;11.95;6.03;;;4.00;97.40;;;;;;5012554;28;20025;-76
2021/01/29 03:29:20;;;;;;;11.23;6.22;;;4.00;97.30;;;;;;5012389;28;20026;-76
2021/01/29 03:31:50;;;;;;;15.70;5.35;;;3.90;97.40;;;;;;5029535;28;20026;-76
2021/01/29 03:34:27;;;;;;;12.32;5.70;;;3.90;97.50;;;;;;5012536;28;20368;-76
2021/01/29 03:37:03;;;;;;;11.02;4.97;;;3.90;97.30;;;;;;5012196;28;20492;-75
2021/01/29 03:39:37;;;;;;;9.95;5.50;;;3.90;97.30;;;;;;5012052;28;20046;-76
2021/01/29 03:42:26;;;;;;;14.05;5.40;;;3.90;97.40;;;;;;5012371;28;20065;-77
2021/01/29 03:44:59;;;;;;;13.18;5.55;;;3.80;97.50;;;;;;5012404;28;20030;-76
2021/01/29 03:47:34;;;;;;;11.27;5.30;;;3.90;97.60;;;;;;5012141;28;20040;-77
2021/01/29 03:50:27;;;;;;;11.88;5.70;;;3.90;97.50;;;;;;5013808;28;20018;-75
2021/01/29 03:53:08;;;;;;;9.75;5.53;;;3.90;97.50;;;;;;5012411;28;20042;-75
2021/01/29 03:56:05;;;;;;;11.52;5.25;;;3.90;97.50;;;;;;5027546;28;20047;-76
2021/01/29 03:58:52;;;;;;;10.13;5.57;;;3.90;97.60;;;;;;4992787;28;20038;-74
2021/01/29 04:01:29;;;;;;;15.00;6.55;;;4.10;97.60;;;;;;5005364;28;20073;-75
2021/01/29 04:04:00;;;;;;;8.10;4.65;;;3.80;97.50;;;;;;5006688;28;20089;-76
2021/01/29 04:06:29;;;;;;;9.40;5.22;;;3.90;97.60;;;;;;5007573;28;20038;-75
2021/01/29 04:08:58;;;;;;;9.88;5.45;;;3.90;97.50;;;;;;4998561;28;20034;-76
2021/01/29 04:11:31;;;;;;;11.50;5.88;;;3.80;97.40;;;;;;5012127;28;20030;-74
2021/01/29 04:14:01;;;;;;;11.45;5.18;;;3.80;97.60;;;;;;5013494;28;20033;-74
2021/01/29 04:16:37;;;;;;;8.90;5.25;;;3.80;97.50;;;;;;5012018;28;20390;-74
2021/01/29 04:19:07;;;;;;;11.88;5.70;;;3.80;97.60;;;;;;5027122;28;20066;-76
2021/01/29 04:21:38;;;;;;;10.93;5.70;;;3.80;97.70;;;;;;5011806;28;20042;-74
2021/01/29 04:24:12;;;;;;;14.75;5.85;;;3.80;97.80;;;;;;5011752;28;20076;-75
2021/01/29 04:26:44;;;;;;;11.52;6.28;;;3.70;98.00;;;;;;5011697;28;20207;-75
2021/01/29 04:29:15;;;;;;;13.18;6.22;;;3.70;98.00;;;;;;5011605;28;20041;-74
2021/01/29 04:31:43;;;;;;;10.43;5.93;;;3.70;98.00;;;;;;5013272;28;20030;-76
2021/01/29 04:34:21;;;;;;;9.70;5.72;;;3.70;98.10;;;;;;5011651;28;20041;-75
2021/01/29 04:36:49;;;;;;;10.75;5.70;;;3.60;98.20;;;;;;5027116;28;20050;-75
2021/01/29 04:39:20;;;;;;;13.05;6.22;;;3.70;98.30;;;;;;5011667;28;20026;-75
2021/01/29 04:42:00;;;;;;;14.25;6.55;;;3.70;98.30;;;;;;5014558;28;20050;-75
2021/01/29 04:45:06;;;;;;;12.30;6.32;;;3.60;98.30;;;;;;5014629;28;20034;-75
2021/01/29 04:47:56;;;;;;;13.18;7.35;;;3.70;98.60;;;;;;5015463;28;20124;-75
2021/01/29 04:50:40;;;;;;;9.75;5.82;;;3.70;98.60;;;;;;5015486;28;20022;-75
2021/01/29 04:53:44;;;;;;;14.27;5.90;;;3.70;98.70;;;;;;5017137;28;20436;-76
2021/01/29 04:57:09;;;;;;;10.57;6.07;;;3.70;98.80;;;;;;5015119;28;20448;-75
2021/01/29 04:59:58;;;;;;;14.70;6.03;;;3.60;98.80;;;;;;5014229;28;20029;-75
2021/01/29 05:02:42;;;;;;;14.88;6.38;;;3.70;99.00;;;;;;5045335;28;20033;-75
2021/01/29 05:05:29;;;;;;;12.43;6.60;;;3.80;98.70;;;;;;4997193;28;20089;-76
2021/01/29 05:08:06;;;;;;;18.45;6.82;;;3.70;98.70;;;;;;5011600;28;20049;-77
2021/01/29 05:10:53;;;;;;;11.52;6.68;;;3.60;98.80;;;;;;5011189;28;20534;-76
2021/01/29 05:13:52;;;;;;;11.07;5.60;;;3.80;98.80;;;;;;5012963;28;20108;-76
2021/01/29 05:17:07;;;;;;;16.13;7.18;;;3.80;98.80;;;;;;5013164;28;20593;-76
2021/01/29 05:19:48;;;;;;;11.57;6.35;;;3.80;98.70;;;;;;5005176;28;20070;-77
2021/01/29 05:22:25;;;;;;;11.05;6.28;;;3.70;98.90;;;;;;4995054;28;20038;-76
2021/01/29 05:24:54;;;;;;;13.60;6.75;;;3.70;98.90;;;;;;5009188;28;20104;-75
2021/01/29 05:27:52;;;;;;;19.00;7.05;;;3.80;98.90;;;;;;5010589;28;20030;-77
2021/01/29 05:30:36;;;;;;;12.85;6.57;;;3.70;98.90;;;;;;4995131;28;20038;-76
2021/01/29 05:33:31;;;;;;;14.55;6.78;;;3.70;99.00;;;;;;5002385;28;20037;-77
2021/01/29 05:36:01;;;;;;;16.23;7.43;;;3.70;98.90;;;;;;5014336;28;20033;-76
2021/01/29 05:38:37;;;;;;;17.45;7.20;;;3.70;98.80;;;;;;5014423;28;20042;-76
2021/01/29 05:41:19;;;;;;;16.05;8.13;;;3.70;98.90;;;;;;5031666;28;20026;-74
2021/01/29 05:44:12;;;;;;;14.90;7.95;;;3.60;99.10;;;;;;5014187;28;20111;-75
2021/01/29 05:46:53;;;;;;;14.75;8.32;;;3.60;99.40;;;;;;5014761;28;20061;-75
2021/01/29 05:49:36;;;;;;;15.25;7.80;;;3.60;99.50;;;;;;5014465;28;20038;-75
2021/01/29 05:52:40;;;;;;;16.25;8.13;;;3.60;99.50;;;;;;5028846;28;20456;-75
2021/01/29 05:55:23;;;;;;;16.52;8.43;;;3.60;99.40;;;;;;5013119;28;20045;-76
2021/01/29 05:58:14;;;;;;;14.82;7.57;;;3.70;99.40;;;;;;5014249;28;20049;-76
2021/01/29 06:00:58;;;;;;;17.65;8.55;;;3.70;99.40;;;;;;5014177;28;20048;-75
2021/01/29 06:03:46;;;;;;;18.90;8.00;;;3.60;99.40;;;;;;5014149;28;20038;-76
2021/01/29 06:06:35;;;;;;;18.40;8.68;;;3.50;99.50;;;;;;5014040;28;20034;-77
2021/01/29 06:09:35;;;;;;;16.48;8.05;;;3.60;99.50;;;;;;5029774;28;20077;-77
2021/01/29 06:12:23;;;;;;;19.20;8.50;;;3.70;99.60;;;;;;5007224;28;20488;-75
2021/01/29 06:15:13;;;;;;;19.88;8.82;;;3.70;99.40;;;;;;4999881;28;20099;-75
2021/01/29 06:18:05;;;;;;;17.35;9.27;;;3.60;99.40;;;;;;5013783;28;20467;-75
2021/01/29 06:20:48;;;;;;;21.05;8.80;;;3.70;99.40;;;;;;5014082;28;20038;-76
2021/01/29 06:23:35;;;;;;;17.67;8.65;;;3.70;99.40;;;;;;5013634;28;20040;-76
2021/01/29 06:26:10;;;;;;;15.95;8.25;;;3.60;99.30;;;;;;5030774;28;20022;-76
2021/01/29 06:28:54;;;;;;;17.08;8.07;;;3.60;99.50;;;;;;5013846;28;20095;-75
2021/01/29 06:31:58;;;;;;;15.50;8.68;;;3.70;99.60;;;;;;5013815;28;20038;-74
2021/01/29 06:34:53;;;;;;;13.68;7.68;;;3.60;99.50;;;;;;5000023;28;20050;-78
2021/01/29 06:37:56;;;;;;;14.45;7.90;;;3.50;99.50;;;;;;4994094;28;20489;-78
2021/01/29 06:40:54;;;;;;;13.82;6.93;;;3.50;99.50;;;;;;5006401;28;20048;-74
2021/01/29 06:43:23;;;;;;;15.75;8.02;;;3.50;99.60;;;;;;5014535;28;20033;-75
2021/01/29 06:46:07;;;;;;;17.38;8.15;;;3.40;99.70;;;;;;5017005;28;20034;-79
2021/01/29 06:48:42;;;;;;;17.20;8.27;;;3.40;99.70;;;;;;5015858;28;20045;-78
2021/01/29 06:51:28;;;;;;;18.50;9.18;;;3.50;99.70;;;;;;5024175;28;20079;-78
2021/01/29 06:54:25;;;;;;;17.83;8.30;;;3.40;99.70;;;;;;5036376;28;20042;-78
2021/01/29 06:57:16;;;;;;;14.18;7.57;;;3.40;99.70;;;;;;5034982;28;20102;-77
2021/01/29 06:59:59;;;;;;;15.32;7.82;;;3.50;99.70;;;;;;5036035;28;20033;-76
2021/01/29 07:03:03;;;;;;;18.25;8.70;;;3.50;99.60;;;;;;5036001;28;20459;-78
2021/01/29 07:05:45;;;;;;;16.80;8.65;;;3.50;99.60;;;;;;5035762;28;20375;-77
2021/01/29 07:08:48;;;;;;;15.48;8.48;;;3.30;99.70;;;;;;5034481;28;20084;-76
2021/01/29 07:11:54;;;;;;;23.35;9.15;;;3.40;99.90;;;;;;5035594;28;20022;-76
2021/01/29 07:14:31;;;;;;;20.10;10.02;;;3.40;99.80;;;;;;5033305;28;20060;-77
2021/01/29 07:17:02;;;;;;;26.52;10.15;;;3.40;99.70;;;;;;5035110;28;20478;-76
2021/01/29 07:19:57;;;;;;;18.35;9.43;;;3.50;99.70;;;;;;5015799;28;20476;-77
2021/01/29 07:22:45;;;;;;;14.93;8.95;;;3.40;99.80;;;;;;5033087;28;20126;-80
2021/01/29 07:25:51;;;;;;;20.85;9.82;;;3.40;99.70;;;;;;5034311;28;20037;-74
2021/01/29 07:28:35;;;;;;;17.58;9.48;;;3.50;99.80;;;;;;5033479;28;20034;-75
2021/01/29 07:31:19;;;;;;;24.08;11.48;;;3.50;99.80;;;;;;5033980;28;20111;-74
2021/01/29 07:33:58;;;;;;;21.85;10.70;;;3.50;99.80;;;;;;5033805;28;20061;-74
2021/01/29 07:36:35;;;;;;;23.23;10.68;;;3.60;99.70;;;;;;5033904;28;20026;-74
2021/01/29 07:39:21;;;;;;;22.95;11.45;;;3.50;99.70;;;;;;5032887;28;20025;-74
2021/01/29 07:42:17;;;;;;;21.97;11.17;;;3.60;99.80;;;;;;5033703;28;20459;-76
2021/01/29 07:45:24;;;;;;;23.05;10.80;;;3.50;99.80;;;;;;5033510;28;20281;-76
2021/01/29 07:48:29;;;;;;;24.63;11.98;;;3.60;99.90;;;;;;5033577;28;20049;-75
2021/01/29 07:51:17;;;;;;;20.67;12.15;;;3.60;99.70;;;;;;5033423;28;20058;-76
2021/01/29 07:54:05;;;;;;;23.52;11.60;;;3.60;99.90;;;;;;5019349;28;20045;-73
2021/01/29 07:57:17;;;;;;;23.98;11.50;;;3.50;99.90;;;;;;5013168;28;20495;-73
2021/01/29 08:00:09;;;;;;;27.13;12.60;;;3.60;99.90;;;;;;5010613;28;20038;-76
2021/01/29 08:03:04;;;;;;;24.63;11.85;;;3.60;99.90;;;;;;5023888;28;20042;-73
2021/01/29 08:05:53;;;;;;;21.95;12.20;;;3.70;99.90;;;;;;5002690;28;20334;-76
2021/01/29 08:08:36;;;;;;;23.90;12.18;;;3.70;99.90;;;;;;5014096;28;20105;-75
2021/01/29 08:11:06;;;;;;;22.67;11.13;;;3.70;99.90;;;;;;5020180;28;20010;-72
2021/01/29 08:13:32;;;;;;;23.25;11.25;;;3.80;99.90;;;;;;5014284;28;20526;-75
2021/01/29 08:16:31;;;;;;;20.88;11.63;;;3.80;99.90;;;;;;5021806;28;20117;-74
2021/01/29 08:19:16;;;;;;;19.42;10.68;;;3.80;99.90;;;;;;5028804;28;20041;-80
2021/01/29 08:21:56;;;;;;;22.77;11.38;;;3.70;99.90;;;;;;5031997;28;20056;-74
2021/01/29 08:24:47;;;;;;;21.45;11.32;;;3.80;99.90;;;;;;5029623;28;20033;-80
2021/01/29 08:27:23;;;;;;;25.60;12.52;;;3.80;99.90;;;;;;5018426;28;20057;-74
2021/01/29 08:29:52;;;;;;;22.42;11.80;;;3.70;99.90;;;;;;5012029;28;20107;-74
2021/01/29 08:32:42;;;;;;;22.60;12.05;;;3.80;99.90;;;;;;5024097;28;20052;-73
2021/01/29 08:35:22;;;;;;;22.17;11.88;;;3.90;99.90;;;;;;5033358;28;20018;-74
2021/01/29 08:38:00;;;;;;;22.85;12.35;;;3.80;99.90;;;;;;5014957;28;20383;-74
2021/01/29 08:40:35;;;;;;;23.20;12.38;;;3.80;99.90;;;;;;5011826;28;20089;-75
2021/01/29 08:43:19;;;;;;;23.05;12.23;;;3.80;99.90;;;;;;5011754;28;20060;-74
2021/01/29 08:46:00;;;;;;;23.33;11.57;;;3.80;99.90;;;;;;5035832;28;20049;-74
2021/01/29 08:48:43;;;;;;;22.58;11.20;;;3.80;99.90;;;;;;5013232;28;20064;-75
2021/01/29 08:51:22;;;;;;;20.05;10.68;;;3.90;99.90;;;;;;5012797;28;20033;-76
2021/01/29 08:54:21;;;;;;;26.08;10.88;;;3.80;99.90;;;;;;5011846;28;20100;-74
2021/01/29 08:57:03;;;;;;;19.02;9.80;;;3.80;99.90;;;;;;5012694;28;20507;-77
2021/01/29 08:59:35;;;;;;;17.15;10.00;;;3.80;99.90;;;;;;5019853;28;20061;-76
2021/01/29 09:02:33;;;;;;;17.80;10.32;;;3.70;99.90;;;;;;5020913;28;20022;-75
2021/01/29 09:05:10;;;;;;;21.83;10.32;;;3.80;99.80;;;;;;5012120;28;20061;-76
2021/01/29 09:07:41;;;;;;;21.52;11.18;;;3.70;99.80;;;;;;5044254;28;20038;-79
2021/01/29 09:10:10;;;;;;;18.25;10.35;;;3.60;99.90;;;;;;5011852;28;20038;-75
2021/01/29 09:12:37;;;;;;;20.30;10.57;;;3.60;99.90;;;;;;5019497;28;20053;-75
2021/01/29 09:15:13;;;;;;;19.95;10.45;;;3.70;99.80;;;;;;5012156;28;20038;-76
2021/01/29 09:17:47;;;;;;;20.60;10.98;;;3.60;99.70;;;;;;5024338;28;20037;-75
2021/01/29 09:20:22;;;;;;;23.77;11.73;;;3.70;99.90;;;;;;5023252;28;20033;-78
2021/01/29 09:23:03;;;;;;;23.70;10.68;;;3.80;99.90;;;;;;5019127;28;20072;-75
2021/01/29 09:25:47;;;;;;;21.77;10.43;;;3.60;99.70;;;;;;5017356;28;20057;-73
2021/01/29 09:28:16;;;;;;;19.90;10.82;;;3.60;99.90;;;;;;5013093;28;20034;-76
2021/01/29 09:30:56;;;;;;;20.13;10.68;;;3.70;99.90;;;;;;5025035;28;20038;-75
2021/01/29 09:34:01;;;;;;;20.20;10.90;;;3.70;99.80;;;;;;5012164;28;20116;-76
2021/01/29 09:36:32;;;;;;;21.52;10.88;;;3.70;99.70;;;;;;5006062;28;20374;-76
2021/01/29 09:39:08;;;;;;;22.63;11.82;;;3.80;99.80;;;;;;5001840;28;20049;-76
2021/01/29 09:41:44;;;;;;;32.90;15.25;;;3.80;99.70;;;;;;5022170;28;20037;-76
2021/01/29 09:44:26;;;;;;;20.85;11.25;;;3.80;99.90;;;;;;5014421;28;20113;-75
2021/01/29 09:46:56;;;;;;;19.00;10.80;;;3.80;99.70;;;;;;4996742;28;20028;-76
2021/01/29 09:49:26;;;;;;;20.08;11.63;;;3.70;99.70;;;;;;4995113;28;20127;-75
2021/01/29 09:52:27;;;;;;;22.25;12.02;;;3.70;99.80;;;;;;5027448;28;20495;-75
2021/01/29 09:55:22;;;;;;;23.20;12.43;;;3.60;99.90;;;;;;5028895;28;20048;-75
2021/01/29 09:58:12;;;;;;;23.52;12.25;;;3.60;99.90;;;;;;5032412;28;20083;-75
2021/01/29 10:00:41;;;;;;;24.50;12.25;;;3.70;99.90;;;;;;5033533;28;20045;-78
2021/01/29 10:03:24;;;;;;;23.15;11.93;;;3.80;99.90;;;;;;5029270;28;20057;-76
2021/01/29 10:06:00;;;;;;;22.42;12.57;;;3.80;99.90;;;;;;5030890;28;20026;-75
2021/01/29 10:08:32;;;;;;;24.83;13.88;;;3.70;99.90;;;;;;5013460;28;20049;-74
2021/01/29 10:11:10;;;;;;;22.52;12.68;;;3.70;99.90;;;;;;5015970;28;20119;-75
2021/01/29 10:13:54;;;;;;;;;;;3.70;99.90;;;;;;5013573;28;20364;-74
2021/01/29 10:16:23;;;;;;;18.73;11.27;;;3.70;99.90;;;;;;5013135;28;19932;-75
2021/01/29 10:19:08;;;;;;;21.77;11.10;;;3.60;99.90;;;;;;5013179;28;20482;-77
2021/01/29 10:21:55;;;;;;;21.27;11.32;;;3.60;99.90;;;;;;5013092;28;20065;-77
2021/01/29 10:24:33;;;;;;;23.92;12.07;;;3.70;99.90;;;;;;5014051;28;20041;-76
2021/01/29 10:27:13;;;;;;;19.88;11.15;;;3.70;99.90;;;;;;5012775;28;20186;-76
2021/01/29 10:29:45;;;;;;;25.13;11.75;;;3.80;99.90;;;;;;5013608;28;20042;-76
2021/01/29 10:32:19;;;;;;;21.08;11.55;;;3.70;99.90;;;;;;5013560;28;20056;-77
2021/01/29 10:34:57;;;;;;;20.98;11.18;;;3.80;99.90;;;;;;5015356;28;20393;-75
2021/01/29 10:37:31;;;;;;;20.05;11.18;;;3.70;99.90;;;;;;5013652;28;20049;-77
2021/01/29 10:40:11;;;;;;;17.15;10.20;;;3.80;99.90;;;;;;5013017;28;20396;-76
2021/01/29 10:42:50;;;;;;;16.17;9.90;;;4.10;99.90;;;;;;5013660;28;20310;-77
2021/01/29 10:45:20;;;;;;;21.55;10.68;;;4.10;99.90;;;;;;5012003;28;20037;-78
2021/01/29 10:48:21;;;;;;;18.60;9.85;;;4.00;99.90;;;;;;5013265;28;20025;-78
2021/01/29 10:50:56;;;;;;;23.55;11.20;;;4.00;99.90;;;;;;5041487;28;20100;-75
2021/01/29 10:53:24;;;;;;;15.77;9.70;;;4.00;99.90;;;;;;5013282;28;20409;-76
2021/01/29 10:55:50;;;;;;;17.63;9.60;;;4.00;99.90;;;;;;5014645;28;20018;-76
2021/01/29 10:58:34;;;;;;;15.73;9.68;;;3.90;99.90;;;;;;5013468;28;20129;-74
2021/01/29 11:01:03;;;;;;;19.05;9.85;;;4.00;99.90;;;;;;5013336;28;20073;-75
2021/01/29 11:03:56;;;;;;;19.23;10.50;;;3.80;99.90;;;;;;5013276;28;20052;-76
2021/01/29 11:06:27;;;;;;;19.75;10.98;;;4.00;99.90;;;;;;5013010;28;20030;-75
2021/01/29 11:09:00;;;;;;;16.38;9.27;;;4.00;99.80;;;;;;5013205;28;20244;-78
2021/01/29 11:11:42;;;;;;;17.35;9.75;;;3.90;99.90;;;;;;5012527;28;20034;-75
2021/01/29 11:14:31;;;;;;;16.40;9.27;;;3.90;99.90;;;;;;5014700;28;20429;-74
2021/01/29 11:17:20;;;;;;;17.90;9.55;;;3.80;99.90;;;;;;5013085;28;20037;-77
2021/01/29 11:19:48;;;;;;;17.90;9.77;;;3.80;99.90;;;;;;5013097;28;20034;-75
2021/01/29 11:22:23;;;;;;;17.30;10.02;;;3.70;99.90;;;;;;5012726;28;20132;-73
2021/01/29 11:25:00;;;;;;;17.65;9.70;;;3.70;99.90;;;;;;5012041;28;20049;-75
2021/01/29 11:28:02;;;;;;;17.67;10.27;;;3.80;99.90;;;;;;5013124;28;20413;-72
2021/01/29 11:30:36;;;;;;;20.08;11.38;;;3.60;99.90;;;;;;5011404;28;20112;-73
2021/01/29 11:33:06;;;;;;;15.35;8.70;;;3.70;99.90;;;;;;5012707;28;20030;-73
2021/01/29 11:35:32;;;;;;;15.98;8.40;;;3.70;99.90;;;;;;5044599;28;20030;-73
2021/01/29 11:38:00;;;;;;;13.75;7.82;;;3.80;99.90;;;;;;5012978;28;20057;-75
2021/01/29 11:40:52;;;;;;;17.73;8.48;;;3.80;99.90;;;;;;5011216;28;20125;-74
2021/01/29 11:43:45;;;;;;;13.40;7.80;;;3.70;99.90;;;;;;5011888;28;20044;-74
2021/01/29 11:46:35;;;;;;;15.00;8.45;;;3.60;99.90;;;;;;5012450;28;20038;-74
2021/01/29 11:49:12;;;;;;;13.18;8.05;;;3.70;99.90;;;;;;5011549;28;20042;-73
2021/01/29 11:51:51;;;;;;;14.77;8.15;;;3.80;99.90;;;;;;5012518;28;20061;-74
2021/01/29 11:54:26;;;;;;;16.05;8.65;;;3.70;99.90;;;;;;5012134;28;20495;-76
2021/01/29 11:57:16;;;;;;;13.88;7.80;;;3.80;99.90;;;;;;5012058;28;20038;-74
2021/01/29 12:00:09;;;;;;;13.30;7.63;;;3.80;99.90;;;;;;5012121;28;20352;-73
2021/01/29 12:02:43;;;;;;;16.10;8.63;;;3.80;99.90;;;;;;5012223;28;20037;-75
2021/01/29 12:05:24;;;;;;;13.65;8.02;;;3.70;99.90;;;;;;5012802;28;20022;-73
2021/01/29 12:08:11;;;;;;;12.02;7.40;;;3.70;99.80;;;;;;5012502;28;20364;-78
2021/01/29 12:10:53;;;;;;;13.57;8.30;;;3.70;99.90;;;;;;4991891;28;20089;-76
2021/01/29 12:13:26;;;;;;;12.75;8.10;;;3.70;99.90;;;;;;5010005;28;20042;-77
2021/01/29 12:16:03;;;;;;;13.10;7.40;;;3.70;99.90;;;;;;5012134;28;20056;-76
2021/01/29 12:18:32;;;;;;;11.85;7.72;;;3.70;99.90;;;;;;5012118;28;20433;-78
2021/01/29 12:21:28;;;;;;;15.13;8.32;;;3.70;99.80;;;;;;5012089;28;20529;-77
2021/01/29 12:24:23;;;;;;;20.70;10.38;;;3.60;99.90;;;;;;5012392;28;20061;-76
2021/01/29 12:27:04;;;;;;;14.10;7.85;;;3.50;99.90;;;;;;4992814;28;20034;-77
2021/01/29 12:29:48;;;;;;;16.65;7.93;;;3.60;99.90;;;;;;5012032;28;20116;-75
2021/01/29 12:32:24;;;;;;;16.10;7.57;;;3.70;99.90;;;;;;5012032;28;20022;-77
2021/01/29 12:35:12;;;;;;;14.30;8.23;;;3.70;99.90;;;;;;5013837;28;20436;-76
2021/01/29 12:38:09;;;;;;;12.07;7.50;;;3.60;99.90;;;;;;5012482;28;20136;-76
2021/01/29 12:40:47;;;;;;;14.43;7.55;;;3.60;99.90;;;;;;5012408;28;20536;-77
2021/01/29 12:43:25;;;;;;;15.52;7.70;;;3.60;99.90;;;;;;5012014;28;20034;-72
2021/01/29 12:45:53;;;;;;;13.57;7.78;;;3.70;99.90;;;;;;5011019;28;20367;-74
2021/01/29 12:48:43;;;;;;;11.93;7.40;;;3.70;99.90;;;;;;5011687;28;20026;-78
2021/01/29 12:51:12;;;;;;;15.70;8.18;;;3.60;99.90;;;;;;5011660;28;20121;-73
2021/01/29 12:53:40;;;;;;;14.63;7.90;;;3.60;99.90;;;;;;5011874;28;20368;-72
2021/01/29 12:56:29;;;;;;;13.82;7.75;;;3.70;99.90;;;;;;5013353;28;20022;-73
2021/01/29 12:59:01;;;;;;;14.35;7.63;;;3.60;99.90;;;;;;5012389;28;20030;-74
2021/01/29 13:01:36;;;;;;;16.42;8.25;;;3.60;99.90;;;;;;5012261;28;20070;-73
2021/01/29 13:04:31;;;;;;;16.60;8.27;;;3.60;99.90;;;;;;5015279;28;20118;-74
2021/01/29 13:07:23;;;;;;;14.43;8.52;;;3.60;99.90;;;;;;5014170;28;20038;-74
2021/01/29 13:10:07;;;;;;;18.52;8.70;;;3.60;99.90;;;;;;5001740;28;20031;-74
2021/01/29 13:12:58;;;;;;;13.00;7.53;;;3.50;99.90;;;;;;4995696;28;20435;-76
2021/01/29 13:16:01;;;;;;;17.70;9.05;;;3.50;99.90;;;;;;4995058;28;20034;-78
2021/01/29 13:18:38;;;;;;;13.80;8.00;;;3.50;99.90;;;;;;5005706;28;20030;-74
2021/01/29 13:21:14;;;;;;;14.65;7.78;;;3.50;99.90;;;;;;5013987;28;20030;-77
2021/01/29 13:23:41;;;;;;;13.80;8.00;;;3.50;99.90;;;;;;5014179;28;20041;-73
2021/01/29 13:26:12;;;;;;;15.45;8.52;;;3.50;99.90;;;;;;5015758;28;20096;-73
2021/01/29 13:28:55;;;;;;;15.60;7.90;;;3.50;99.90;;;;;;4994621;28;20035;-75
2021/01/29 13:31:43;;;;;;;12.93;6.82;;;3.60;99.90;;;;;;5013237;28;20034;-74
2021/01/29 13:34:15;;;;;;;11.00;6.47;;;3.60;99.90;;;;;;5010576;28;20372;-73
2021/01/29 13:37:01;;;;;;;12.40;6.70;;;3.60;99.90;;;;;;4994978;28;20031;-73
2021/01/29 13:39:40;;;;;;;16.88;8.93;;;3.60;99.90;;;;;;5005657;28;20048;-74
2021/01/29 13:42:28;;;;;;;11.95;7.13;;;3.50;99.90;;;;;;5014185;28;20701;-75
2021/01/29 13:45:02;;;;;;;12.32;5.95;;;3.60;99.90;;;;;;5014534;28;20464;-73
2021/01/29 13:47:33;;;;;;;13.65;7.50;;;3.60;99.90;;;;;;5014375;28;20099;-73
2021/01/29 13:50:23;;;;;;;15.20;8.25;;;3.60;99.90;;;;;;5048271;28;20131;-76